createdAt,value
2018-08-23T00:00:44.656Z,4.33
2018-08-23T00:03:23.562Z,5.00
2018-08-23T00:05:53.800Z,4.40
2018-08-23T00:08:23.426Z,5.60
2018-08-23T00:10:53.144Z,5.03
2018-08-23T00:13:22.572Z,5.03
2018-08-23T00:18:31.120Z,4.83
2018-08-23T00:21:00.134Z,4.43
2018-08-23T00:23:29.060Z,5.43
2018-08-23T00:26:16.719Z,4.70
2018-08-23T00:28:46.605Z,4.30
2018-08-23T00:31:15.731Z,4.70
2018-08-23T00:33:45.205Z,4.17
2018-08-23T00:36:14.147Z,4.80
2018-08-23T00:38:43.164Z,4.87
2018-08-23T00:41:12.265Z,5.00
2018-08-23T00:43:41.250Z,5.07
2018-08-23T00:46:16.222Z,5.30
2018-08-23T00:48:45.245Z,5.23
2018-08-23T00:51:14.387Z,5.00
2018-08-23T00:53:47.974Z,5.27
2018-08-23T00:56:22.839Z,4.97
2018-08-23T00:58:57.637Z,5.13
2018-08-23T01:01:26.550Z,4.80
2018-08-23T01:03:55.276Z,4.77
2018-08-23T01:06:31.997Z,4.73
2018-08-23T01:09:00.945Z,4.80
2018-08-23T01:11:29.928Z,4.70
2018-08-23T01:13:59.353Z,4.77
2018-08-23T01:16:32.168Z,4.20
2018-08-23T01:19:06.205Z,4.93
2018-08-23T01:21:39.339Z,4.23
2018-08-23T01:24:08.679Z,4.87
2018-08-23T01:26:37.527Z,5.10
2018-08-23T01:29:17.557Z,5.17
2018-08-23T01:31:46.473Z,4.87
2018-08-23T01:34:15.456Z,5.37
2018-08-23T01:36:44.337Z,4.93
2018-08-23T01:39:13.332Z,4.97
2018-08-23T01:41:42.389Z,4.60
2018-08-23T01:44:11.469Z,4.63
2018-08-23T01:46:45.210Z,4.87
2018-08-23T01:49:14.708Z,5.70
2018-08-23T01:51:43.581Z,5.03
2018-08-23T01:54:12.517Z,5.00
2018-08-23T01:56:41.536Z,5.20
2018-08-23T01:59:10.763Z,4.43
2018-08-23T02:01:39.812Z,4.80
2018-08-23T02:06:46.422Z,5.33
2018-08-23T02:09:15.518Z,4.87
2018-08-23T02:11:44.522Z,5.50
2018-08-23T02:14:13.844Z,5.40
2018-08-23T02:16:51.290Z,5.40
2018-08-23T02:19:23.858Z,5.13
2018-08-23T02:21:52.721Z,5.47
2018-08-23T02:24:26.379Z,5.50
2018-08-23T02:26:55.364Z,5.63
2018-08-23T02:29:35.637Z,5.73
2018-08-23T02:32:05.808Z,5.30
2018-08-23T02:34:42.695Z,4.93
2018-08-23T02:37:12.791Z,6.03
2018-08-23T02:39:42.524Z,5.73
2018-08-23T02:42:13.656Z,5.77
2018-08-23T02:44:43.637Z,5.60
2018-08-23T02:47:12.947Z,5.27
2018-08-23T02:49:43.945Z,6.53
2018-08-23T02:52:12.914Z,5.67
2018-08-23T02:54:41.883Z,5.97
2018-08-23T02:57:14.284Z,6.23
2018-08-23T02:59:43.213Z,5.70
2018-08-23T03:02:14.743Z,5.57
2018-08-23T03:04:49.258Z,5.43
2018-08-23T03:07:24.433Z,5.60
2018-08-23T03:09:53.455Z,5.77
2018-08-23T03:12:22.341Z,5.20
2018-08-23T03:14:52.325Z,6.17
2018-08-23T03:17:22.912Z,5.90
2018-08-23T03:20:02.309Z,7.17
2018-08-23T03:22:32.452Z,6.67
2018-08-23T03:25:08.869Z,5.80
2018-08-23T03:27:37.927Z,5.43
2018-08-23T03:30:09.036Z,5.17
2018-08-23T03:32:38.134Z,5.67
2018-08-23T03:35:07.325Z,5.40
2018-08-23T03:37:37.638Z,6.17
2018-08-23T03:40:07.235Z,5.37
2018-08-23T03:42:36.371Z,5.80
2018-08-23T03:45:05.921Z,6.53
2018-08-23T03:47:40.116Z,5.87
2018-08-23T03:50:10.003Z,6.13
2018-08-23T03:52:39.697Z,5.77
2018-08-23T03:55:10.104Z,6.23
2018-08-23T03:57:44.286Z,5.83
2018-08-23T04:00:13.621Z,6.90
2018-08-23T04:02:42.548Z,6.30
2018-08-23T04:05:16.727Z,6.40
2018-08-23T04:07:46.735Z,6.30
2018-08-23T04:10:17.701Z,6.00
2018-08-23T04:12:46.606Z,6.47
2018-08-23T04:15:28.932Z,5.80
2018-08-23T04:18:02.754Z,6.60
2018-08-23T04:20:45.489Z,5.93
2018-08-23T04:23:14.464Z,7.10
2018-08-23T04:25:43.523Z,5.97
2018-08-23T04:28:13.386Z,6.60
2018-08-23T04:30:42.275Z,6.67
2018-08-23T04:33:11.187Z,6.73
2018-08-23T04:35:40.018Z,7.30
2018-08-23T04:38:09.034Z,6.83
2018-08-23T04:40:38.051Z,6.67
2018-08-23T04:43:06.937Z,7.50
2018-08-23T04:45:35.848Z,7.20
2018-08-23T04:48:07.148Z,7.07
2018-08-23T04:50:36.413Z,7.33
2018-08-23T04:53:05.459Z,6.27
2018-08-23T04:55:34.799Z,6.60
2018-08-23T04:58:04.819Z,6.67
2018-08-23T05:00:34.053Z,6.47
2018-08-23T05:03:04.779Z,7.00
2018-08-23T05:05:33.675Z,6.63
2018-08-23T05:08:02.686Z,5.93
2018-08-23T05:10:33.477Z,5.93
2018-08-23T05:13:02.424Z,6.07
2018-08-23T05:15:31.573Z,6.30
2018-08-23T05:18:00.702Z,6.27
2018-08-23T05:20:29.712Z,6.15
2018-08-23T05:23:05.521Z,5.80
2018-08-23T05:25:34.438Z,6.30
2018-08-23T05:28:12.734Z,6.62
2018-08-23T05:30:43.642Z,6.10
2018-08-23T05:33:19.897Z,6.40
2018-08-23T05:35:49.067Z,7.28
2018-08-23T05:38:18.622Z,8.10
2018-08-23T05:40:54.336Z,7.43
2018-08-23T05:43:23.727Z,7.50
2018-08-23T05:45:54.897Z,7.50
2018-08-23T05:48:32.062Z,8.03
2018-08-23T05:51:05.115Z,8.70
2018-08-23T05:53:37.671Z,6.97
2018-08-23T05:56:07.176Z,6.93
2018-08-23T05:58:36.198Z,7.37
2018-08-23T06:01:05.204Z,7.57
2018-08-23T06:03:35.006Z,7.83
2018-08-23T06:06:03.824Z,7.37
2018-08-23T06:08:32.766Z,7.83
2018-08-23T06:11:07.433Z,8.57
2018-08-23T06:13:36.374Z,8.20
2018-08-23T06:16:05.397Z,8.00
2018-08-23T06:18:34.204Z,7.70
2018-08-23T06:21:03.232Z,13.93
2018-08-23T06:23:39.834Z,8.43
2018-08-23T06:26:08.854Z,8.13
2018-08-23T06:28:37.945Z,6.62
2018-08-23T06:31:07.249Z,7.93
2018-08-23T06:33:41.295Z,7.78
2018-08-23T06:36:11.250Z,7.47
2018-08-23T06:38:40.836Z,6.47
2018-08-23T06:41:09.904Z,7.70
2018-08-23T06:43:39.328Z,7.90
2018-08-23T06:46:08.206Z,6.58
2018-08-23T06:48:37.266Z,6.45
2018-08-23T06:51:10.765Z,7.67
2018-08-23T06:53:48.226Z,6.67
2018-08-23T06:56:19.134Z,6.70
2018-08-23T06:58:48.369Z,6.83
2018-08-23T07:01:34.648Z,7.65
2018-08-23T07:04:08.812Z,9.20
2018-08-23T07:06:38.441Z,7.00
2018-08-23T07:09:17.214Z,6.75
2018-08-23T07:11:46.483Z,5.83
2018-08-23T07:14:17.644Z,6.78
2018-08-23T07:16:48.307Z,6.30
2018-08-23T07:19:27.877Z,5.95
2018-08-23T07:21:57.605Z,6.05
2018-08-23T07:24:41.505Z,5.83
2018-08-23T07:27:12.063Z,6.22
2018-08-23T07:29:41.565Z,6.53
2018-08-23T07:32:16.877Z,5.55
2018-08-23T07:35:01.461Z,5.72
2018-08-23T07:37:31.653Z,6.08
2018-08-23T07:40:05.625Z,6.00
2018-08-23T07:42:35.996Z,5.83
2018-08-23T07:45:04.961Z,5.83
2018-08-23T07:47:36.538Z,6.60
2018-08-23T07:50:06.210Z,6.37
2018-08-23T07:52:35.380Z,5.53
2018-08-23T07:55:06.580Z,5.80
2018-08-23T07:57:36.630Z,5.45
2018-08-23T08:00:44.488Z,6.05
2018-08-23T08:03:14.466Z,5.97
2018-08-23T08:05:44.700Z,6.45
2018-08-23T08:08:14.105Z,5.33
2018-08-23T08:10:44.633Z,6.20
2018-08-23T08:13:13.593Z,5.35
2018-08-23T08:15:42.549Z,5.00
2018-08-23T08:18:23.285Z,4.95
2018-08-23T08:20:59.775Z,5.55
2018-08-23T08:23:29.217Z,6.10
2018-08-23T08:25:58.151Z,6.53
2018-08-23T08:28:27.109Z,5.67
2018-08-23T08:30:59.582Z,6.10
2018-08-23T08:33:33.554Z,6.70
2018-08-23T08:36:04.122Z,7.22
2018-08-23T08:38:33.579Z,7.30
2018-08-23T08:41:02.494Z,6.70
2018-08-23T08:43:32.028Z,5.58
2018-08-23T08:46:01.288Z,6.25
2018-08-23T08:48:30.175Z,6.50
2018-08-23T08:51:15.528Z,5.97
2018-08-23T08:53:44.847Z,6.55
2018-08-23T08:56:13.809Z,6.33
2018-08-23T08:58:43.595Z,6.30
2018-08-23T09:01:12.453Z,5.95
2018-08-23T09:03:41.447Z,5.53
2018-08-23T09:06:11.612Z,5.60
2018-08-23T09:08:40.639Z,6.08
2018-08-23T09:11:09.768Z,5.78
2018-08-23T09:13:44.088Z,5.90
2018-08-23T09:16:12.952Z,5.55
2018-08-23T09:18:42.977Z,6.05
2018-08-23T09:21:12.023Z,5.78
2018-08-23T09:23:41.052Z,6.58
2018-08-23T09:26:09.923Z,7.92
2018-08-23T09:28:39.262Z,6.58
2018-08-23T09:31:08.134Z,5.60
2018-08-23T09:33:37.155Z,5.75
2018-08-23T09:36:06.735Z,5.70
2018-08-23T09:38:35.730Z,5.10
2018-08-23T09:41:04.704Z,5.25
2018-08-23T09:43:34.661Z,6.05
2018-08-23T09:46:03.601Z,5.35
2018-08-23T09:48:32.589Z,5.55
2018-08-23T09:51:01.759Z,6.30
2018-08-23T09:53:30.724Z,5.67
2018-08-23T09:55:59.777Z,6.25
2018-08-23T09:58:34.096Z,5.67
2018-08-23T10:01:08.016Z,5.87
2018-08-23T10:03:42.012Z,6.08
2018-08-23T10:06:16.022Z,5.65
2018-08-23T10:08:51.572Z,5.58
2018-08-23T10:11:25.548Z,6.33
2018-08-23T10:13:59.529Z,6.20
2018-08-23T10:16:33.539Z,5.87
2018-08-23T10:19:07.867Z,6.15
2018-08-23T10:21:42.099Z,5.17
2018-08-23T10:24:17.728Z,5.08
2018-08-23T10:26:46.809Z,6.03
2018-08-23T10:29:15.690Z,5.17
2018-08-23T10:31:44.958Z,5.78
2018-08-23T10:34:13.869Z,6.05
2018-08-23T10:36:42.776Z,5.80
2018-08-23T10:39:13.442Z,5.78
2018-08-23T10:41:42.520Z,5.60
2018-08-23T10:44:11.500Z,5.25
2018-08-23T10:46:45.864Z,5.67
2018-08-23T10:49:14.697Z,5.45
2018-08-23T10:51:43.702Z,5.45
2018-08-23T10:54:13.130Z,5.33
2018-08-23T10:56:42.061Z,5.42
2018-08-23T10:59:11.081Z,5.12
2018-08-23T11:01:40.442Z,5.03
2018-08-23T11:04:10.136Z,5.50
2018-08-23T11:06:45.087Z,5.15
2018-08-23T11:09:19.146Z,6.08
2018-08-23T11:11:48.040Z,5.55
2018-08-23T11:14:21.936Z,5.50
2018-08-23T11:16:56.795Z,5.42
2018-08-23T11:19:30.683Z,5.58
2018-08-23T11:21:59.963Z,5.20
2018-08-23T11:24:28.877Z,5.42
2018-08-23T11:26:57.760Z,4.95
2018-08-23T11:29:27.896Z,5.25
2018-08-23T11:31:56.815Z,5.10
2018-08-23T11:34:26.774Z,5.58
2018-08-23T11:36:56.184Z,5.08
2018-08-23T11:39:25.242Z,5.95
2018-08-23T11:41:54.216Z,5.10
2018-08-23T11:44:24.695Z,4.62
2018-08-23T11:46:53.807Z,5.47
2018-08-23T11:49:22.944Z,4.92
2018-08-23T11:51:52.247Z,5.00
2018-08-23T11:54:21.268Z,5.08
2018-08-23T11:56:50.196Z,5.40
2018-08-23T11:59:20.370Z,5.45
2018-08-23T12:01:49.621Z,5.15
2018-08-23T12:04:18.909Z,5.05
2018-08-23T12:06:48.561Z,5.67
2018-08-23T12:09:18.704Z,4.85
2018-08-23T12:11:47.679Z,5.53
2018-08-23T12:14:16.813Z,6.00
2018-08-23T12:16:45.791Z,4.80
2018-08-23T12:19:14.645Z,4.92
2018-08-23T12:21:43.931Z,4.83
2018-08-23T12:24:12.821Z,5.50
2018-08-23T12:26:41.912Z,5.28
2018-08-23T12:29:10.945Z,6.00
2018-08-23T12:31:39.973Z,5.50
2018-08-23T12:34:10.268Z,4.78
2018-08-23T12:36:44.802Z,4.37
2018-08-23T12:39:18.953Z,5.03
2018-08-23T12:41:53.475Z,4.95
2018-08-23T12:44:22.360Z,5.67
2018-08-23T12:46:55.403Z,6.53
2018-08-23T12:49:24.607Z,4.60
2018-08-23T12:51:53.481Z,5.78
2018-08-23T12:54:22.392Z,5.28
2018-08-23T12:56:51.350Z,5.30
2018-08-23T12:59:20.235Z,4.75
2018-08-23T13:01:49.507Z,5.33
2018-08-23T13:04:18.441Z,4.92
2018-08-23T13:06:47.266Z,5.53
2018-08-23T13:09:16.572Z,4.78
2018-08-23T13:11:45.519Z,5.28
2018-08-23T13:14:14.649Z,5.35
2018-08-23T13:16:43.637Z,5.62
2018-08-23T13:19:12.581Z,4.87
2018-08-23T13:21:41.470Z,5.35
2018-08-23T13:24:10.467Z,5.10
2018-08-23T13:26:45.325Z,5.35
2018-08-23T13:29:14.845Z,6.08
2018-08-23T13:31:43.829Z,5.37
2018-08-23T13:34:12.798Z,4.85
2018-08-23T13:36:41.844Z,5.35
2018-08-23T13:39:12.576Z,5.87
2018-08-23T13:41:41.669Z,6.60
2018-08-23T13:44:11.039Z,5.20
2018-08-23T13:46:39.849Z,6.20
2018-08-23T13:49:08.741Z,5.42
2018-08-23T13:51:37.779Z,5.47
2018-08-23T13:54:06.815Z,6.20
2018-08-23T13:56:35.713Z,5.60
2018-08-23T13:59:05.226Z,5.83
2018-08-23T14:01:34.144Z,5.33
2018-08-23T14:04:03.195Z,5.80
2018-08-23T14:06:32.524Z,5.25
2018-08-23T14:09:01.323Z,6.47
2018-08-23T14:11:30.256Z,5.47
2018-08-23T14:13:59.531Z,5.05
2018-08-23T14:16:28.405Z,5.58
2018-08-23T14:18:57.423Z,5.85
2018-08-23T14:21:26.425Z,5.50
2018-08-23T14:23:55.379Z,5.70
2018-08-23T14:26:24.448Z,5.72
2018-08-23T14:28:53.871Z,5.33
2018-08-23T14:31:22.821Z,4.83
2018-08-23T14:33:51.701Z,5.30
2018-08-23T14:36:20.690Z,5.50
2018-08-23T14:38:49.719Z,5.08
2018-08-23T14:41:18.822Z,4.80
2018-08-23T14:43:48.254Z,5.70
2018-08-23T14:46:22.354Z,5.25
2018-08-23T14:48:51.346Z,5.47
2018-08-23T14:51:20.390Z,5.33
2018-08-23T14:53:49.533Z,5.45
2018-08-23T14:56:23.368Z,5.53
2018-08-23T14:58:52.141Z,5.85
2018-08-23T15:01:21.064Z,5.47
2018-08-23T15:03:50.612Z,4.78
2018-08-23T15:06:19.469Z,5.22
2018-08-23T15:09:04.973Z,5.97
2018-08-23T15:11:33.871Z,5.62
2018-08-23T15:14:02.847Z,5.85
2018-08-23T15:16:31.944Z,4.90
2018-08-23T15:19:01.054Z,4.83
2018-08-23T15:21:30.021Z,4.90
2018-08-23T15:23:58.992Z,5.33
2018-08-23T15:26:28.187Z,5.03
2018-08-23T15:28:56.840Z,5.55
2018-08-23T15:31:26.408Z,5.95
2018-08-23T15:33:55.380Z,5.20
2018-08-23T15:36:24.566Z,5.40
2018-08-23T15:38:53.525Z,5.25
2018-08-23T15:41:22.720Z,4.78
2018-08-23T15:43:51.812Z,5.05
2018-08-23T15:46:21.211Z,4.83
2018-08-23T15:48:50.515Z,5.30
2018-08-23T15:51:19.541Z,4.83
2018-08-23T15:53:48.851Z,5.28
2018-08-23T15:56:17.927Z,5.50
2018-08-23T15:58:48.022Z,5.83
2018-08-23T16:01:19.490Z,4.92
2018-08-23T16:03:48.545Z,5.22
2018-08-23T16:06:17.488Z,4.72
2018-08-23T16:08:51.964Z,5.47
2018-08-23T16:11:23.974Z,5.00
2018-08-23T16:13:53.850Z,5.50
2018-08-23T16:16:28.792Z,5.03
2018-08-23T16:19:02.904Z,5.58
2018-08-23T16:21:38.469Z,5.45
2018-08-23T16:24:07.676Z,5.12
2018-08-23T16:26:42.692Z,5.17
2018-08-23T16:29:12.205Z,4.75
2018-08-23T16:31:41.219Z,5.47
2018-08-23T16:34:10.146Z,4.20
2018-08-23T16:36:43.206Z,5.03
2018-08-23T16:39:12.441Z,5.35
2018-08-23T16:41:41.368Z,5.42
2018-08-23T16:44:10.562Z,5.92
2018-08-23T16:46:39.586Z,5.12
2018-08-23T16:49:08.657Z,5.03
2018-08-23T16:51:38.267Z,5.47
2018-08-23T16:54:07.277Z,5.08
2018-08-23T16:56:36.297Z,4.78
2018-08-23T16:59:05.325Z,4.85
2018-08-23T17:01:34.419Z,4.80
2018-08-23T17:04:03.478Z,4.53
2018-08-23T17:06:32.860Z,4.35
2018-08-23T17:09:01.879Z,3.83
2018-08-23T17:11:30.856Z,4.78
2018-08-23T17:13:59.855Z,4.85
2018-08-23T17:16:33.971Z,5.00
2018-08-23T17:19:03.342Z,4.05
2018-08-23T17:21:33.339Z,4.25
2018-08-23T17:24:03.156Z,4.03
2018-08-23T17:26:32.447Z,4.37
2018-08-23T17:29:01.497Z,4.12
2018-08-23T17:31:30.994Z,4.25
2018-08-23T17:33:59.852Z,3.85
2018-08-23T17:36:28.780Z,3.50
2018-08-23T17:38:57.917Z,3.87
2018-08-23T17:41:26.741Z,4.17
2018-08-23T17:43:55.708Z,4.40
2018-08-23T17:46:24.903Z,5.95
2018-08-23T17:48:53.904Z,5.08
2018-08-23T17:51:22.919Z,3.95
2018-08-23T17:53:51.883Z,4.55
2018-08-23T17:56:20.881Z,3.95
2018-08-23T17:58:49.704Z,3.80
2018-08-23T18:01:19.072Z,3.87
2018-08-23T18:03:48.021Z,4.20
2018-08-23T18:06:16.955Z,4.12
2018-08-23T18:08:46.411Z,4.25
2018-08-23T18:11:15.215Z,3.70
2018-08-23T18:13:44.224Z,4.55
2018-08-23T18:16:19.184Z,4.30
2018-08-23T18:18:48.172Z,4.60
2018-08-23T18:21:17.117Z,3.37
2018-08-23T18:23:46.090Z,3.90
2018-08-23T18:26:14.923Z,3.83
2018-08-23T18:28:43.837Z,4.30
2018-08-23T18:31:13.352Z,4.45
2018-08-23T18:33:42.313Z,4.15
2018-08-23T18:36:11.258Z,4.00
2018-08-23T18:38:40.638Z,5.17
2018-08-23T18:41:09.494Z,4.35
2018-08-23T18:43:38.531Z,3.58
2018-08-23T18:46:07.556Z,4.03
2018-08-23T18:48:36.604Z,4.12
2018-08-23T18:51:05.636Z,5.17
2018-08-23T18:53:35.059Z,4.85
2018-08-23T18:56:04.077Z,4.28
2018-08-23T18:58:33.124Z,4.37
2018-08-23T19:01:02.454Z,4.15
2018-08-23T19:03:31.446Z,4.30
2018-08-23T19:06:00.561Z,4.67
2018-08-23T19:08:30.155Z,4.92
2018-08-23T19:10:59.364Z,4.62
2018-08-23T19:13:28.386Z,4.65
2018-08-23T19:16:02.780Z,4.47
2018-08-23T19:18:31.760Z,4.22
2018-08-23T19:21:00.753Z,4.00
2018-08-23T19:23:29.953Z,3.90
2018-08-23T19:25:58.914Z,3.72
2018-08-23T19:28:27.942Z,4.00
2018-08-23T19:30:57.287Z,3.65
2018-08-23T19:33:26.195Z,3.67
2018-08-23T19:35:55.094Z,3.80
2018-08-23T19:38:25.072Z,4.45
2018-08-23T19:40:54.048Z,4.70
2018-08-23T19:43:23.078Z,4.22
2018-08-23T19:45:57.639Z,4.87
2018-08-23T19:48:26.631Z,4.47
2018-08-23T19:50:55.517Z,4.95
2018-08-23T19:53:24.869Z,4.08
2018-08-23T19:55:53.683Z,3.92
2018-08-23T19:58:22.645Z,4.33
2018-08-23T20:00:51.616Z,4.60
2018-08-23T20:03:20.629Z,4.33
2018-08-23T20:05:49.447Z,3.70
2018-08-23T20:08:18.733Z,3.72
2018-08-23T20:10:47.722Z,3.50
2018-08-23T20:13:16.612Z,3.40
2018-08-23T20:15:45.668Z,3.90
2018-08-23T20:18:14.814Z,3.65
2018-08-23T20:20:43.881Z,3.67
2018-08-23T20:23:12.877Z,3.02
2018-08-23T20:25:55.055Z,2.92
2018-08-23T20:28:24.629Z,3.50
2018-08-23T20:30:54.528Z,3.77
2018-08-23T20:33:23.755Z,4.10
2018-08-23T20:35:53.180Z,3.95
2018-08-23T20:38:23.154Z,3.40
2018-08-23T20:40:52.209Z,4.03
2018-08-23T20:43:21.147Z,3.77
2018-08-23T20:45:50.225Z,3.52
2018-08-23T20:48:19.289Z,3.53
2018-08-23T20:50:48.176Z,3.70
2018-08-23T20:53:18.295Z,3.57
2018-08-23T20:55:47.189Z,3.17
2018-08-23T20:58:16.718Z,3.43
2018-08-23T21:00:45.562Z,3.50
2018-08-23T21:03:14.539Z,3.30
2018-08-23T21:05:43.915Z,2.80
2018-08-23T21:08:12.829Z,3.53
2018-08-23T21:10:41.702Z,3.27
2018-08-23T21:13:10.665Z,3.57
2018-08-23T21:15:39.797Z,3.60
2018-08-23T21:18:11.228Z,3.73
2018-08-23T21:20:41.035Z,3.50
2018-08-23T21:23:13.130Z,3.00
2018-08-23T21:25:42.026Z,3.73
2018-08-23T21:28:10.967Z,3.53
2018-08-23T21:30:40.537Z,3.00
2018-08-23T21:33:09.486Z,3.20
2018-08-23T21:35:38.243Z,3.03
2018-08-23T21:38:07.850Z,3.27
2018-08-23T21:40:36.634Z,2.90
2018-08-23T21:43:05.925Z,3.20
2018-08-23T21:45:35.340Z,3.37
2018-08-23T21:48:04.229Z,3.37
2018-08-23T21:50:33.153Z,3.00
2018-08-23T21:53:02.411Z,2.83
2018-08-23T21:55:38.243Z,3.20
2018-08-23T21:58:09.183Z,3.00
2018-08-23T22:00:43.427Z,3.30
2018-08-23T22:03:13.955Z,3.80
2018-08-23T22:05:43.384Z,3.63
2018-08-23T22:08:12.389Z,3.43
2018-08-23T22:10:41.830Z,4.17
2018-08-23T22:13:10.747Z,3.30
2018-08-23T22:15:44.824Z,3.40
2018-08-23T22:18:13.823Z,3.03
2018-08-23T22:20:42.810Z,3.40
2018-08-23T22:23:12.192Z,3.07
2018-08-23T22:25:41.441Z,3.03
2018-08-23T22:28:10.796Z,3.07
2018-08-23T22:30:41.644Z,3.50
2018-08-23T22:33:11.953Z,3.93
2018-08-23T22:35:41.164Z,3.63
2018-08-23T22:38:11.094Z,3.93
2018-08-23T22:40:40.123Z,2.90
2018-08-23T22:43:09.208Z,3.07
2018-08-23T22:45:38.609Z,3.23
2018-08-23T22:48:07.943Z,3.10
2018-08-23T22:50:36.918Z,2.90
2018-08-23T22:53:06.081Z,2.80
2018-08-23T22:58:13.017Z,3.40
2018-08-23T23:00:42.600Z,4.07
2018-08-23T23:03:17.178Z,3.80
2018-08-23T23:08:38.746Z,4.50
2018-08-23T23:11:07.809Z,4.20
2018-08-23T23:13:36.652Z,4.23
2018-08-23T23:16:05.798Z,3.40
2018-08-23T23:18:34.731Z,4.10
2018-08-23T23:21:03.757Z,4.13
2018-08-23T23:23:32.952Z,3.53
2018-08-23T23:26:01.967Z,3.83
2018-08-23T23:28:31.812Z,3.53
2018-08-23T23:31:00.833Z,3.70
2018-08-23T23:33:29.909Z,3.20
2018-08-23T23:35:58.979Z,3.10
2018-08-23T23:38:28.393Z,3.40
2018-08-23T23:40:57.287Z,3.47
2018-08-23T23:43:26.296Z,3.23
2018-08-23T23:45:55.281Z,3.77
2018-08-23T23:48:24.431Z,3.40
2018-08-23T23:50:53.454Z,3.83
2018-08-23T23:53:22.350Z,3.63
2018-08-23T23:55:51.386Z,4.30
2018-08-23T23:58:20.351Z,4.10
